Loose Creek, Missouri
Current Conditions -  °F | °C
As of 7:53 PM on Thursday 20 Nov 2014 (Local Time) from KJEF Reporting Station
Clear Clear  
Wind Chill: 29°   Ceiling: Unl
Heat Index: 29°   Visibility: 10mi
Dew Point: 19°   Wind: 3mph
Humidity: 67%   Direction: 310°NW
Pressure: 30.28"   Gusts: NA
Location:  38.51°N, 91.96°W
Report Text: KJEF 210153Z 31003KT 10SM CLR M02/M07 A3028 RMK AO2 SLP250 T10171072
Loading
Personal Weather Stations






























Interactive Weather Map New forecast layout! Learn more

10-Day Weather Forecast

Advertisements
Track Severe Weather on mobile